createdAt,value
2019-05-18T00:00:03.922Z,29.93
2019-05-18T00:02:33.879Z,32.07
2019-05-18T00:05:02.051Z,33.27
2019-05-18T00:07:30.322Z,33.87
2019-05-18T00:09:58.357Z,33.73
2019-05-18T00:12:26.586Z,33.97
2019-05-18T00:14:54.743Z,33.87
2019-05-18T00:17:25.431Z,35.03
2019-05-18T00:19:53.121Z,36.63
2019-05-18T00:22:21.197Z,35.77
2019-05-18T00:24:49.390Z,35.57
2019-05-18T00:27:17.703Z,37.00
2019-05-18T00:29:46.740Z,37.77
2019-05-18T00:32:15.888Z,37.33
2019-05-18T00:34:43.929Z,36.00
2019-05-18T00:37:12.107Z,37.67
2019-05-18T00:39:40.462Z,38.17
2019-05-18T00:42:08.462Z,35.37
2019-05-18T00:44:36.623Z,38.03
2019-05-18T00:47:04.761Z,38.53
2019-05-18T00:49:32.780Z,36.40
2019-05-18T00:52:00.855Z,37.27
2019-05-18T00:54:28.951Z,36.53
2019-05-18T00:56:57.069Z,38.90
2019-05-18T00:59:25.298Z,39.47
2019-05-18T01:01:53.672Z,39.83
2019-05-18T01:04:21.731Z,37.83
2019-05-18T01:06:49.873Z,36.93
2019-05-18T01:09:18.043Z,35.47
2019-05-18T01:11:46.352Z,38.80
2019-05-18T01:14:14.430Z,36.50
2019-05-18T01:16:42.467Z,36.87
2019-05-18T01:19:10.905Z,35.10
2019-05-18T01:21:38.923Z,36.17
2019-05-18T01:24:07.218Z,38.63
2019-05-18T01:26:35.477Z,36.03
2019-05-18T01:29:06.683Z,37.30
2019-05-18T01:31:35.048Z,35.97
2019-05-18T01:34:03.293Z,37.80
2019-05-18T01:36:31.538Z,35.10
2019-05-18T01:38:59.603Z,36.20
2019-05-18T01:41:27.695Z,35.43
2019-05-18T01:43:55.839Z,35.63
2019-05-18T01:46:23.860Z,36.67
2019-05-18T01:48:52.967Z,36.00
2019-05-18T01:51:21.198Z,36.20
2019-05-18T01:53:49.837Z,36.70
2019-05-18T01:56:18.050Z,36.93
2019-05-18T01:58:46.120Z,34.27
2019-05-18T02:01:14.438Z,34.00
2019-05-18T02:03:42.546Z,35.93
2019-05-18T02:06:10.843Z,33.20
2019-05-18T02:08:39.080Z,33.97
2019-05-18T02:11:07.171Z,35.20
2019-05-18T02:13:35.272Z,32.93
2019-05-18T02:16:03.364Z,34.13
2019-05-18T02:18:31.594Z,35.10
2019-05-18T02:20:59.660Z,34.03
2019-05-18T02:23:27.792Z,33.30
2019-05-18T02:25:55.855Z,34.77
2019-05-18T02:28:23.965Z,32.70
2019-05-18T02:30:52.037Z,34.27
2019-05-18T02:33:20.181Z,33.93
2019-05-18T02:35:48.460Z,33.40
2019-05-18T02:38:16.919Z,32.67
2019-05-18T02:40:46.035Z,34.00
2019-05-18T02:43:15.481Z,34.53
2019-05-18T02:45:43.509Z,35.77
2019-05-18T02:48:12.889Z,34.07
2019-05-18T02:50:41.165Z,33.77
2019-05-18T02:53:09.326Z,32.80
2019-05-18T02:55:37.484Z,32.07
2019-05-18T02:58:06.505Z,33.97
2019-05-18T03:00:34.714Z,34.87
2019-05-18T03:03:02.883Z,33.10
2019-05-18T03:05:31.185Z,34.37
2019-05-18T03:07:59.283Z,32.97
2019-05-18T03:10:27.712Z,34.20
2019-05-18T03:12:55.966Z,33.73
2019-05-18T03:15:24.031Z,35.13
2019-05-18T03:17:52.413Z,34.27
2019-05-18T03:20:20.596Z,33.83
2019-05-18T03:22:48.842Z,35.77
2019-05-18T03:25:17.032Z,32.97
2019-05-18T03:27:45.240Z,33.73
2019-05-18T03:30:13.896Z,33.60
2019-05-18T03:32:42.023Z,34.93
2019-05-18T03:35:11.285Z,35.23
2019-05-18T03:37:41.603Z,34.27
2019-05-18T03:40:10.266Z,35.03
2019-05-18T03:42:39.413Z,34.90
2019-05-18T03:45:08.623Z,34.40
2019-05-18T03:47:36.714Z,34.97
2019-05-18T03:50:04.936Z,33.90
2019-05-18T03:52:33.086Z,34.90
2019-05-18T03:55:01.179Z,35.40
2019-05-18T03:57:29.272Z,34.97
2019-05-18T03:59:57.702Z,34.30
2019-05-18T04:02:25.942Z,33.47
2019-05-18T04:04:55.158Z,34.17
2019-05-18T04:07:23.348Z,34.70
2019-05-18T04:09:53.550Z,36.80
2019-05-18T04:12:22.076Z,34.03
2019-05-18T04:14:53.253Z,34.90
2019-05-18T04:17:24.658Z,36.53
2019-05-18T04:19:53.981Z,35.30
2019-05-18T04:22:24.310Z,33.33
2019-05-18T04:24:52.607Z,32.17
2019-05-18T04:27:21.274Z,33.23
2019-05-18T04:29:50.645Z,31.50
2019-05-18T04:32:18.995Z,31.80
2019-05-18T04:34:47.381Z,32.30
2019-05-18T04:37:16.385Z,31.47
2019-05-18T04:39:44.632Z,30.13
2019-05-18T04:42:12.684Z,31.47
2019-05-18T04:44:40.822Z,30.33
2019-05-18T04:47:08.886Z,30.43
2019-05-18T04:49:37.057Z,29.13
2019-05-18T04:52:07.107Z,27.23
2019-05-18T04:54:36.023Z,28.27
2019-05-18T04:57:06.067Z,27.83
2019-05-18T04:59:34.535Z,29.00
2019-05-18T05:02:02.830Z,29.00
2019-05-18T05:04:31.178Z,30.60
2019-05-18T05:06:59.328Z,29.73
2019-05-18T05:09:27.403Z,30.53
2019-05-18T05:11:55.994Z,30.13
2019-05-18T05:14:24.064Z,31.17
2019-05-18T05:16:52.278Z,29.67
2019-05-18T05:19:20.381Z,30.50
2019-05-18T05:21:48.635Z,30.47
2019-05-18T05:24:16.683Z,29.67
2019-05-18T05:26:44.748Z,27.00
2019-05-18T05:29:12.843Z,27.67
2019-05-18T05:31:40.811Z,28.57
2019-05-18T05:34:08.943Z,27.33
2019-05-18T05:36:37.011Z,27.83
2019-05-18T05:39:05.926Z,27.20
2019-05-18T05:41:34.195Z,26.37
2019-05-18T05:44:02.410Z,27.00
2019-05-18T05:46:30.535Z,27.47
2019-05-18T05:48:58.620Z,27.00
2019-05-18T05:51:26.873Z,26.87
2019-05-18T05:53:54.952Z,27.37
2019-05-18T05:56:23.496Z,25.77
2019-05-18T05:58:51.572Z,25.37
2019-05-18T06:01:19.742Z,25.73
2019-05-18T06:03:47.797Z,25.57
2019-05-18T06:06:15.883Z,25.10
2019-05-18T06:08:43.925Z,25.37
2019-05-18T06:11:12.822Z,25.13
2019-05-18T06:13:41.222Z,24.70
2019-05-18T06:16:09.335Z,24.40
2019-05-18T06:18:37.530Z,23.17
2019-05-18T06:21:05.789Z,24.53
2019-05-18T06:23:35.379Z,22.73
2019-05-18T06:26:03.740Z,23.00
2019-05-18T06:28:32.567Z,22.47
2019-05-18T06:31:01.022Z,23.20
2019-05-18T06:33:29.278Z,21.63
2019-05-18T06:35:57.654Z,22.17
2019-05-18T06:38:25.851Z,22.53
2019-05-18T06:40:54.181Z,23.23
2019-05-18T06:43:22.304Z,22.27
2019-05-18T06:45:50.397Z,22.20
2019-05-18T06:48:18.486Z,21.97
2019-05-18T06:50:46.603Z,22.17
2019-05-18T06:53:14.836Z,22.37
2019-05-18T06:55:43.231Z,21.73
2019-05-18T06:58:11.865Z,23.07
2019-05-18T07:00:40.008Z,22.80
2019-05-18T07:03:09.208Z,20.87
2019-05-18T07:05:37.229Z,22.00
2019-05-18T07:08:05.632Z,20.47
2019-05-18T07:10:33.949Z,20.30
2019-05-18T07:13:02.008Z,20.60
2019-05-18T07:15:30.079Z,20.80
2019-05-18T07:17:58.198Z,22.40
2019-05-18T07:20:26.305Z,23.40
2019-05-18T07:22:54.310Z,22.67
2019-05-18T07:25:22.528Z,21.70
2019-05-18T07:27:51.561Z,21.30
2019-05-18T07:30:23.701Z,21.67
2019-05-18T07:32:53.174Z,22.60
2019-05-18T07:35:21.345Z,22.33
2019-05-18T07:37:49.450Z,22.20
2019-05-18T07:40:17.617Z,21.93
2019-05-18T07:42:45.653Z,21.43
2019-05-18T07:45:14.402Z,19.87
2019-05-18T07:47:42.526Z,20.80
2019-05-18T07:50:12.777Z,20.73
2019-05-18T07:52:40.830Z,19.30
2019-05-18T07:55:09.097Z,20.27
2019-05-18T07:57:37.172Z,19.67
2019-05-18T08:00:05.845Z,18.50
2019-05-18T08:02:34.152Z,18.00
2019-05-18T08:05:02.201Z,18.63
2019-05-18T08:07:30.270Z,17.47
2019-05-18T08:09:58.303Z,17.33
2019-05-18T08:12:26.378Z,17.83
2019-05-18T08:14:54.457Z,17.47
2019-05-18T08:17:22.664Z,17.67
2019-05-18T08:19:50.831Z,16.03
2019-05-18T08:22:18.982Z,17.93
2019-05-18T08:24:47.054Z,18.95
2019-05-18T08:27:15.190Z,17.57
2019-05-18T08:29:43.290Z,17.02
2019-05-18T08:32:11.512Z,16.43
2019-05-18T08:34:39.600Z,15.20
2019-05-18T08:37:08.504Z,14.27
2019-05-18T08:39:36.649Z,12.57
2019-05-18T08:42:04.773Z,12.68
2019-05-18T08:44:32.937Z,12.57
2019-05-18T08:47:01.048Z,11.83
2019-05-18T08:49:29.171Z,12.23
2019-05-18T08:52:07.967Z,12.03
2019-05-18T08:54:27.407Z,12.63
2019-05-18T08:56:55.477Z,11.73
2019-05-18T08:59:23.519Z,12.10
2019-05-18T09:01:54.998Z,10.47
2019-05-18T09:04:23.275Z,11.83
2019-05-18T09:06:51.299Z,12.83
2019-05-18T09:09:19.417Z,13.25
2019-05-18T09:11:47.651Z,12.27
2019-05-18T09:14:15.877Z,9.73
2019-05-18T09:16:43.980Z,9.15
2019-05-18T09:19:12.099Z,10.95
2019-05-18T09:21:40.228Z,10.10
2019-05-18T09:24:08.404Z,11.03
2019-05-18T09:26:36.440Z,11.35
2019-05-18T09:29:05.511Z,11.18
2019-05-18T09:31:33.657Z,10.70
2019-05-18T09:34:01.984Z,11.75
2019-05-18T09:36:30.016Z,10.60
2019-05-18T09:38:58.130Z,11.77
2019-05-18T09:41:26.153Z,12.40
2019-05-18T09:43:54.231Z,11.80
2019-05-18T09:46:22.277Z,11.05
2019-05-18T09:48:50.450Z,11.17
2019-05-18T09:51:18.592Z,11.22
2019-05-18T09:53:51.395Z,12.47
2019-05-18T09:56:17.181Z,11.38
2019-05-18T09:58:45.374Z,11.15
2019-05-18T10:01:13.527Z,9.78
2019-05-18T10:03:41.666Z,8.87
2019-05-18T10:06:10.249Z,8.40
2019-05-18T10:08:38.355Z,8.75
2019-05-18T10:11:06.663Z,7.57
2019-05-18T10:13:35.023Z,7.60
2019-05-18T10:16:04.100Z,9.25
2019-05-18T10:18:36.888Z,10.15
2019-05-18T10:21:05.064Z,10.38
2019-05-18T10:23:33.415Z,9.75
2019-05-18T10:26:01.494Z,9.28
2019-05-18T10:28:29.657Z,9.10
2019-05-18T10:30:58.112Z,9.38
2019-05-18T10:33:26.306Z,9.85
2019-05-18T10:35:54.470Z,8.70
2019-05-18T10:38:22.607Z,8.48
2019-05-18T10:40:51.833Z,8.08
2019-05-18T10:43:19.958Z,8.43
2019-05-18T10:45:47.992Z,8.08
2019-05-18T10:48:16.165Z,8.25
2019-05-18T10:50:44.335Z,8.58
2019-05-18T10:53:27.484Z,8.33
2019-05-18T10:55:42.397Z,8.98
2019-05-18T10:58:10.566Z,9.27
2019-05-18T11:00:38.725Z,9.40
2019-05-18T11:03:06.728Z,9.20
2019-05-18T11:05:34.964Z,8.63
2019-05-18T11:08:03.165Z,8.13
2019-05-18T11:10:31.281Z,8.80
2019-05-18T11:12:59.500Z,8.75
2019-05-18T11:15:27.625Z,8.43
2019-05-18T11:17:55.655Z,8.15
2019-05-18T11:20:24.098Z,8.63
2019-05-18T11:22:52.261Z,9.45
2019-05-18T11:25:20.631Z,8.83
2019-05-18T11:27:48.951Z,9.45
2019-05-18T11:30:17.326Z,9.15
2019-05-18T11:32:45.637Z,8.90
2019-05-18T11:35:16.050Z,7.72
2019-05-18T11:37:44.199Z,7.95
2019-05-18T11:40:14.534Z,8.55
2019-05-18T11:42:42.665Z,8.70
2019-05-18T11:45:13.776Z,8.95
2019-05-18T11:47:41.906Z,8.18
2019-05-18T11:50:10.621Z,8.20
2019-05-18T11:52:38.790Z,8.23
2019-05-18T11:55:08.363Z,8.80
2019-05-18T11:57:36.914Z,8.35
2019-05-18T12:00:08.194Z,8.25
2019-05-18T12:02:36.831Z,8.68
2019-05-18T12:05:05.215Z,8.75
2019-05-18T12:07:33.370Z,8.55
2019-05-18T12:10:01.749Z,8.05
2019-05-18T12:12:31.341Z,8.33
2019-05-18T12:14:59.613Z,8.70
2019-05-18T12:17:28.044Z,8.45
2019-05-18T12:19:56.717Z,8.68
2019-05-18T12:22:24.919Z,8.30
2019-05-18T12:24:53.058Z,9.03
2019-05-18T12:27:21.420Z,8.65
2019-05-18T12:29:49.633Z,8.35
2019-05-18T12:32:17.720Z,8.53
2019-05-18T12:34:45.927Z,8.30
2019-05-18T12:37:21.693Z,7.33
2019-05-18T12:39:51.893Z,6.97
2019-05-18T12:42:20.479Z,7.60
2019-05-18T12:44:48.854Z,7.97
2019-05-18T12:47:16.943Z,7.53
2019-05-18T12:49:45.185Z,7.28
2019-05-18T12:52:13.323Z,6.78
2019-05-18T12:54:46.445Z,7.47
2019-05-18T12:57:11.868Z,6.75
2019-05-18T12:59:40.013Z,7.00
2019-05-18T13:02:08.196Z,6.67
2019-05-18T13:04:37.408Z,6.28
2019-05-18T13:07:05.677Z,6.60
2019-05-18T13:09:33.716Z,7.08
2019-05-18T13:12:02.009Z,7.03
2019-05-18T13:14:31.199Z,6.72
2019-05-18T13:16:59.297Z,6.12
2019-05-18T13:19:27.439Z,7.87
2019-05-18T13:21:56.054Z,6.35
2019-05-18T13:24:24.396Z,7.20
2019-05-18T13:26:52.516Z,6.08
2019-05-18T13:29:20.937Z,5.70
2019-05-18T13:31:49.074Z,5.62
2019-05-18T13:34:18.410Z,5.33
2019-05-18T13:36:46.635Z,5.08
2019-05-18T13:39:14.797Z,4.67
2019-05-18T13:41:42.893Z,5.72
2019-05-18T13:44:11.131Z,4.75
2019-05-18T13:46:39.288Z,5.20
2019-05-18T13:49:07.404Z,5.72
2019-05-18T13:51:35.531Z,5.85
2019-05-18T13:54:03.712Z,5.05
2019-05-18T13:56:34.065Z,4.80
2019-05-18T13:59:02.153Z,5.08
2019-05-18T14:01:30.492Z,4.65
2019-05-18T14:03:58.599Z,5.40
2019-05-18T14:06:27.532Z,5.67
2019-05-18T14:08:55.825Z,5.00
2019-05-18T14:11:23.992Z,4.97
2019-05-18T14:13:53.581Z,5.42
2019-05-18T14:16:21.682Z,5.33
2019-05-18T14:18:50.158Z,5.30
2019-05-18T14:21:18.187Z,4.65
2019-05-18T14:23:48.030Z,5.05
2019-05-18T14:26:16.262Z,5.12
2019-05-18T14:28:45.519Z,4.80
2019-05-18T14:31:14.220Z,6.85
2019-05-18T14:33:42.636Z,5.60
2019-05-18T14:36:11.191Z,5.20
2019-05-18T14:38:39.323Z,4.70
2019-05-18T14:41:07.384Z,4.92
2019-05-18T14:43:35.792Z,5.08
2019-05-18T14:46:03.910Z,5.10
2019-05-18T14:48:33.445Z,4.58
2019-05-18T14:51:01.620Z,4.90
2019-05-18T14:53:32.744Z,4.50
2019-05-18T14:56:00.972Z,4.35
2019-05-18T14:58:30.046Z,4.83
2019-05-18T15:00:58.326Z,4.75
2019-05-18T15:03:26.446Z,4.45
2019-05-18T15:05:55.323Z,4.42
2019-05-18T15:08:23.768Z,10.55
2019-05-18T15:10:52.395Z,13.53
2019-05-18T15:13:22.458Z,14.18
2019-05-18T15:15:50.718Z,14.93
2019-05-18T15:18:19.378Z,13.50
2019-05-18T15:20:50.117Z,14.38
2019-05-18T15:23:19.200Z,14.30
2019-05-18T15:25:51.093Z,13.18
2019-05-18T15:28:18.978Z,13.68
2019-05-18T15:30:50.375Z,12.75
2019-05-18T15:33:18.688Z,13.53
2019-05-18T15:35:47.099Z,13.28
2019-05-18T15:38:15.312Z,14.13
2019-05-18T15:40:43.483Z,12.40
2019-05-18T15:43:11.619Z,13.03
2019-05-18T15:45:39.699Z,13.48
2019-05-18T15:48:07.788Z,13.45
2019-05-18T15:50:35.930Z,12.05
2019-05-18T15:53:04.179Z,12.43
2019-05-18T15:55:32.458Z,12.03
2019-05-18T15:58:00.887Z,12.10
2019-05-18T16:00:29.117Z,11.05
2019-05-18T16:02:57.404Z,11.03
2019-05-18T16:05:25.453Z,10.48
2019-05-18T16:07:54.037Z,9.95
2019-05-18T16:10:22.314Z,11.03
2019-05-18T16:12:50.503Z,11.75
2019-05-18T16:15:18.820Z,12.25
2019-05-18T16:17:47.422Z,12.03
2019-05-18T16:20:15.979Z,11.93
2019-05-18T16:22:44.672Z,11.28
2019-05-18T16:25:13.307Z,11.75
2019-05-18T16:27:44.670Z,11.18
2019-05-18T16:30:13.170Z,11.30
2019-05-18T16:32:41.570Z,10.45
2019-05-18T16:35:10.521Z,10.05
2019-05-18T16:37:38.681Z,10.80
2019-05-18T16:40:06.950Z,11.30
2019-05-18T16:42:36.118Z,12.30
2019-05-18T16:45:04.632Z,10.98
2019-05-18T16:47:33.025Z,11.90
2019-05-18T16:50:01.205Z,11.55
2019-05-18T16:52:29.323Z,12.45
2019-05-18T16:54:57.455Z,11.65
2019-05-18T16:57:25.762Z,11.97
2019-05-18T16:59:53.806Z,12.75
2019-05-18T17:02:31.120Z,13.18
2019-05-18T17:04:51.937Z,13.75
2019-05-18T17:07:20.066Z,12.98
2019-05-18T17:09:48.925Z,12.07
2019-05-18T17:12:17.367Z,12.82
2019-05-18T17:14:45.507Z,12.88
2019-05-18T17:17:13.581Z,15.45
2019-05-18T17:19:41.708Z,14.85
2019-05-18T17:22:09.758Z,13.40
2019-05-18T17:24:37.853Z,14.30
2019-05-18T17:27:05.933Z,15.08
2019-05-18T17:29:34.170Z,13.95
2019-05-18T17:32:02.419Z,13.80
2019-05-18T17:34:30.611Z,14.25
2019-05-18T17:36:58.850Z,14.73
2019-05-18T17:39:27.201Z,15.43
2019-05-18T17:41:56.517Z,15.70
2019-05-18T17:44:24.694Z,14.83
2019-05-18T17:46:52.893Z,16.05
2019-05-18T17:49:26.654Z,17.48
2019-05-18T17:51:51.029Z,15.90
2019-05-18T17:54:19.194Z,16.07
2019-05-18T17:56:47.237Z,16.27
2019-05-18T17:59:15.474Z,15.30
2019-05-18T18:01:43.677Z,15.83
2019-05-18T18:04:11.811Z,16.80
2019-05-18T18:06:39.844Z,16.48
2019-05-18T18:09:08.214Z,15.28
2019-05-18T18:11:36.572Z,15.48
2019-05-18T18:14:09.809Z,16.70
2019-05-18T18:16:38.943Z,16.00
2019-05-18T18:19:12.035Z,18.02
2019-05-18T18:21:47.739Z,17.55
2019-05-18T18:24:16.850Z,18.98
2019-05-18T18:26:45.030Z,19.37
2019-05-18T18:29:13.161Z,18.32
2019-05-18T18:31:41.204Z,18.48
2019-05-18T18:34:09.309Z,18.25
2019-05-18T18:36:37.559Z,18.67
2019-05-18T18:39:08.111Z,18.15
2019-05-18T18:41:36.401Z,18.13
2019-05-18T18:44:04.532Z,18.10
2019-05-18T18:46:32.713Z,17.95
2019-05-18T18:49:01.710Z,19.73
2019-05-18T18:51:30.456Z,18.80
2019-05-18T18:53:58.524Z,19.20
2019-05-18T18:56:26.607Z,19.75
2019-05-18T18:58:54.837Z,19.00
2019-05-18T19:01:22.982Z,19.75
2019-05-18T19:03:51.113Z,20.30
2019-05-18T19:06:19.533Z,20.15
2019-05-18T19:08:47.808Z,20.02
2019-05-18T19:11:15.999Z,19.95
2019-05-18T19:13:45.848Z,19.50
2019-05-18T19:16:14.026Z,20.10
2019-05-18T19:18:43.322Z,20.32
2019-05-18T19:21:11.419Z,20.57
2019-05-18T19:23:39.532Z,19.80
2019-05-18T19:26:07.753Z,21.12
2019-05-18T19:28:35.869Z,19.85
2019-05-18T19:31:03.912Z,19.73
2019-05-18T19:33:32.221Z,21.05
2019-05-18T19:36:00.331Z,19.73
2019-05-18T19:38:28.515Z,19.25
2019-05-18T19:40:56.767Z,20.43
2019-05-18T19:43:24.853Z,20.13
2019-05-18T19:45:53.292Z,19.77
2019-05-18T19:48:23.290Z,19.40
2019-05-18T19:50:51.768Z,20.40
2019-05-18T19:53:20.135Z,19.43
2019-05-18T19:55:48.283Z,20.30
2019-05-18T19:58:16.352Z,19.25
2019-05-18T20:00:45.561Z,21.82
2019-05-18T20:03:13.803Z,21.23
2019-05-18T20:05:41.902Z,21.47
2019-05-18T20:08:10.418Z,22.13
2019-05-18T20:10:38.443Z,21.67
2019-05-18T20:13:06.478Z,22.20
2019-05-18T20:15:35.536Z,22.33
2019-05-18T20:18:03.567Z,23.20
2019-05-18T20:20:31.678Z,22.97
2019-05-18T20:23:00.119Z,23.47
2019-05-18T20:25:28.365Z,23.03
2019-05-18T20:27:56.990Z,23.03
2019-05-18T20:30:26.062Z,24.00
2019-05-18T20:32:54.488Z,23.47
2019-05-18T20:35:25.662Z,23.70
2019-05-18T20:37:52.618Z,24.53
2019-05-18T20:40:20.662Z,24.47
2019-05-18T20:42:49.024Z,25.07
2019-05-18T20:45:17.522Z,23.87
2019-05-18T20:47:45.623Z,24.43
2019-05-18T20:50:14.144Z,25.10
2019-05-18T20:52:42.285Z,24.83
2019-05-18T20:55:10.633Z,25.77
2019-05-18T20:57:38.819Z,26.07
2019-05-18T21:00:08.335Z,26.63
2019-05-18T21:02:38.341Z,26.50
2019-05-18T21:05:06.610Z,27.30
2019-05-18T21:07:34.677Z,27.27
2019-05-18T21:10:05.352Z,27.67
2019-05-18T21:12:33.638Z,27.57
2019-05-18T21:15:01.883Z,27.77
2019-05-18T21:17:34.065Z,28.47
2019-05-18T21:20:05.632Z,28.50
2019-05-18T21:22:34.381Z,27.93
2019-05-18T21:25:02.502Z,29.13
2019-05-18T21:27:30.693Z,27.57
2019-05-18T21:29:58.823Z,29.20
2019-05-18T21:32:26.916Z,28.90
2019-05-18T21:34:55.140Z,29.27
2019-05-18T21:37:26.034Z,28.97
2019-05-18T21:39:54.593Z,29.63
2019-05-18T21:42:25.500Z,29.57
2019-05-18T21:44:56.267Z,27.27
2019-05-18T21:47:29.203Z,29.17
2019-05-18T21:49:57.467Z,29.70
2019-05-18T21:52:25.851Z,29.10
2019-05-18T21:55:02.177Z,30.50
2019-05-18T21:57:32.167Z,28.33
2019-05-18T22:00:09.255Z,29.20
2019-05-18T22:02:39.406Z,29.23
2019-05-18T22:05:08.366Z,29.83
2019-05-18T22:07:36.839Z,29.77
2019-05-18T22:10:05.836Z,29.63
2019-05-18T22:12:34.327Z,29.97
2019-05-18T22:15:03.231Z,29.63
2019-05-18T22:17:35.655Z,30.03
2019-05-18T22:20:05.022Z,30.93
2019-05-18T22:22:33.728Z,31.50
2019-05-18T22:25:02.102Z,31.17
2019-05-18T22:27:30.434Z,33.37
2019-05-18T22:30:03.790Z,32.10
2019-05-18T22:32:32.096Z,32.23
2019-05-18T22:35:00.170Z,31.73
2019-05-18T22:37:28.205Z,32.47
2019-05-18T22:39:56.417Z,33.13
2019-05-18T22:42:24.465Z,32.43
2019-05-18T22:44:57.150Z,32.60
2019-05-18T22:47:25.495Z,32.47
2019-05-18T22:49:53.522Z,32.17
2019-05-18T22:52:21.734Z,31.33
2019-05-18T22:54:49.855Z,30.87
2019-05-18T22:57:18.003Z,33.37
2019-05-18T22:59:46.064Z,31.40
2019-05-18T23:02:14.311Z,32.47
2019-05-18T23:04:42.464Z,33.50
2019-05-18T23:07:10.484Z,33.10
2019-05-18T23:09:38.614Z,33.67
2019-05-18T23:12:06.767Z,35.03
2019-05-18T23:14:34.858Z,33.07
2019-05-18T23:17:03.118Z,36.07
2019-05-18T23:19:31.261Z,36.40
2019-05-18T23:21:59.373Z,36.57
2019-05-18T23:24:27.537Z,36.07
2019-05-18T23:26:55.860Z,37.33
2019-05-18T23:29:23.992Z,37.93
2019-05-18T23:31:52.091Z,36.83
2019-05-18T23:34:20.299Z,38.57
2019-05-18T23:36:48.331Z,38.53
2019-05-18T23:39:16.421Z,38.40
2019-05-18T23:41:44.687Z,40.83
2019-05-18T23:44:13.687Z,39.90
2019-05-18T23:46:41.749Z,39.83
2019-05-18T23:49:11.180Z,40.47
2019-05-18T23:51:39.795Z,41.37
2019-05-18T23:54:07.957Z,40.10
2019-05-18T23:56:36.149Z,39.30
2019-05-18T23:59:04.317Z,41.53
